Time;durP1;ratioP1;P1;durP2;ratioP2;P2;SDS_P1;SDS_P2;PMS_P1;PMS_P2;Temp;Humidity;BMP_temperature;BMP_pressure;BME280_temperature;BME280_humidity;BME280_pressure;Samples;Min_cycle;Max_cycle;Signal;HPM_P1;HPM_P2
2023/07/22 00:00:22;;;;;;;2.85;0.93;;;;;;;;;;2058466;28;20054;-67
2023/07/22 00:01:41;;;;;;;3.00;0.90;;;;;;;;;;2057995;28;20047;-67
2023/07/22 00:03:00;;;;;;;1.63;0.90;;;;;;;;;;2058508;28;20042;-68
2023/07/22 00:04:19;;;;;;;3.13;0.98;;;;;;;;;;2058672;28;20438;-65
2023/07/22 00:05:39;;;;;;;2.55;0.90;;;;;;;;;;2057850;28;20035;-66
2023/07/22 00:06:58;;;;;;;3.47;0.90;;;;;;;;;;2057205;28;20109;-67
2023/07/22 00:08:17;;;;;;;4.30;1.00;;;;;;;;;;2056579;28;20114;-68
2023/07/22 00:09:38;;;;;;;4.47;1.02;;;;;;;;;;2060962;28;20050;-68
2023/07/22 00:10:57;;;;;;;1.27;0.70;;;;;;;;;;2058959;28;20492;-67
2023/07/22 00:12:16;;;;;;;3.45;0.70;;;;;;;;;;2057852;28;20034;-67
2023/07/22 00:13:35;;;;;;;3.35;1.15;;;;;;;;;;2055959;28;20023;-68
2023/07/22 00:14:54;;;;;;;4.03;0.98;;;;;;;;;;2057824;28;20039;-68
2023/07/22 00:16:13;;;;;;;4.72;1.02;;;;;;;;;;2058183;28;20034;-68
2023/07/22 00:17:32;;;;;;;1.83;0.70;;;;;;;;;;2062764;28;20482;-67
2023/07/22 00:18:51;;;;;;;1.67;0.73;;;;;;;;;;2059596;28;20027;-67
2023/07/22 00:20:11;;;;;;;2.15;1.00;;;;;;;;;;2057058;28;20038;-68
2023/07/22 00:21:29;;;;;;;1.73;0.80;;;;;;;;;;2059948;28;20102;-68
2023/07/22 00:22:50;;;;;;;4.05;0.90;;;;;;;;;;2063423;28;20041;-67
2023/07/22 00:24:09;;;;;;;1.17;0.80;;;;;;;;;;2055019;28;20022;-66
2023/07/22 00:25:28;;;;;;;1.15;0.75;;;;;;;;;;2054742;28;20041;-67
2023/07/22 00:26:46;;;;;;;1.55;1.05;;;;;;;;;;2057601;28;20434;-67
2023/07/22 00:28:05;;;;;;;3.13;1.02;;;;;;;;;;2057573;28;20433;-67
2023/07/22 00:29:24;;;;;;;1.70;0.80;;;;;;;;;;2055917;28;20058;-67
2023/07/22 00:30:43;;;;;;;2.88;0.82;;;;;;;;;;2059315;28;20501;-67
2023/07/22 00:32:05;;;;;;;2.70;0.95;;;;;;;;;;2064473;28;20039;-66
2023/07/22 00:33:24;;;;;;;3.58;0.80;;;;;;;;;;2056266;28;20094;-68
2023/07/22 00:34:43;;;;;;;2.88;0.90;;;;;;;;;;2057073;28;20153;-67
2023/07/22 00:36:03;;;;;;;3.88;0.75;;;;;;;;;;2054994;28;20446;-67
2023/07/22 00:37:22;;;;;;;4.00;1.20;;;;;;;;;;2056411;28;20038;-69
2023/07/22 00:38:40;;;;;;;2.08;0.70;;;;;;;;;;2054875;28;20485;-67
2023/07/22 00:40:00;;;;;;;1.92;0.88;;;;;;;;;;2062933;28;20022;-66
2023/07/22 00:41:20;;;;;;;1.98;0.70;;;;;;;;;;2056945;28;20030;-67
2023/07/22 00:42:39;;;;;;;2.50;0.90;;;;;;;;;;2058137;28;20567;-68
2023/07/22 00:43:58;;;;;;;2.33;0.98;;;;;;;;;;2056918;28;20595;-67
2023/07/22 00:45:17;;;;;;;2.35;0.82;;;;;;;;;;2057607;28;20039;-66
2023/07/22 00:46:36;;;;;;;3.53;1.35;;;;;;;;;;2054523;28;20027;-67
2023/07/22 00:47:55;;;;;;;2.90;1.08;;;;;;;;;;2054832;28;20368;-69
2023/07/22 00:49:16;;;;;;;2.22;1.05;;;;;;;;;;2059314;28;20109;-65
2023/07/22 00:50:35;;;;;;;3.10;0.90;;;;;;;;;;2055564;28;20499;-69
2023/07/22 00:51:54;;;;;;;1.85;0.80;;;;;;;;;;2055901;28;20046;-67
2023/07/22 00:53:13;;;;;;;2.30;1.02;;;;;;;;;;2056101;28;20030;-67
2023/07/22 00:54:32;;;;;;;1.70;0.75;;;;;;;;;;2056610;28;20043;-68
2023/07/22 00:55:51;;;;;;;1.35;0.75;;;;;;;;;;2056627;28;20109;-67
2023/07/22 00:57:11;;;;;;;2.40;0.60;;;;;;;;;;2056706;28;20105;-68
2023/07/22 00:58:30;;;;;;;2.42;0.80;;;;;;;;;;2065256;28;20025;-67
2023/07/22 00:59:49;;;;;;;2.65;1.00;;;;;;;;;;2055742;28;20026;-67
2023/07/22 01:01:08;;;;;;;2.28;0.80;;;;;;;;;;2055334;28;20030;-67
2023/07/22 01:02:27;;;;;;;1.55;0.90;;;;;;;;;;2055182;28;20055;-67
2023/07/22 01:03:46;;;;;;;2.13;1.17;;;;;;;;;;2058609;28;20434;-67
2023/07/22 01:05:05;;;;;;;0.90;0.70;;;;;;;;;;2057517;28;20046;-67
2023/07/22 01:06:24;;;;;;;1.38;0.60;;;;;;;;;;2055540;28;20031;-67
2023/07/22 01:07:44;;;;;;;1.80;0.90;;;;;;;;;;2056332;28;20027;-68
2023/07/22 01:09:07;;;;;;;2.85;0.95;;;;;;;;;;2063176;28;20161;-68
2023/07/22 01:10:26;;;;;;;1.33;0.73;;;;;;;;;;2055828;28;20026;-66
2023/07/22 01:11:45;;;;;;;2.38;0.75;;;;;;;;;;2059940;28;20498;-68
2023/07/22 01:13:04;;;;;;;1.33;0.73;;;;;;;;;;2058167;28;20479;-68
2023/07/22 01:14:23;;;;;;;1.40;0.82;;;;;;;;;;2057543;28;20031;-68
2023/07/22 01:15:42;;;;;;;2.92;0.80;;;;;;;;;;2058589;28;20027;-68
2023/07/22 01:17:02;;;;;;;2.83;0.82;;;;;;;;;;2056678;28;20038;-68
2023/07/22 01:18:21;;;;;;;1.98;0.80;;;;;;;;;;2057457;28;20035;-68
2023/07/22 01:19:40;;;;;;;1.25;0.80;;;;;;;;;;2059937;28;20049;-68
2023/07/22 01:20:59;;;;;;;4.18;1.00;;;;;;;;;;2058244;28;20074;-68
2023/07/22 01:22:19;;;;;;;2.55;0.70;;;;;;;;;;2058195;28;20039;-68
2023/07/22 01:23:38;;;;;;;1.42;1.02;;;;;;;;;;2057545;28;20395;-68
2023/07/22 01:24:57;;;;;;;4.30;0.90;;;;;;;;;;2058946;28;20046;-68
2023/07/22 01:26:16;;;;;;;3.97;0.95;;;;;;;;;;2056804;28;20030;-68
2023/07/22 01:27:35;;;;;;;2.35;0.80;;;;;;;;;;2058886;28;20031;-68
2023/07/22 01:29:04;;;;;;;3.28;0.82;;;;;;;;;;2057894;28;20059;-68
2023/07/22 01:30:23;;;;;;;3.63;0.90;;;;;;;;;;2056918;28;20035;-68
2023/07/22 01:31:44;;;;;;;2.50;0.80;;;;;;;;;;2048931;28;20039;-68
2023/07/22 01:33:03;;;;;;;4.10;1.00;;;;;;;;;;2054129;28;20483;-67
2023/07/22 01:34:22;;;;;;;1.67;0.70;;;;;;;;;;2057272;28;20117;-60
2023/07/22 01:35:41;;;;;;;3.72;0.93;;;;;;;;;;2055795;28;20035;-61
2023/07/22 01:37:00;;;;;;;2.05;0.70;;;;;;;;;;2056606;28;20023;-60
2023/07/22 01:38:19;;;;;;;3.42;0.88;;;;;;;;;;2058393;28;20054;-60
2023/07/22 01:39:38;;;;;;;2.83;0.77;;;;;;;;;;2058302;28;20043;-60
2023/07/22 01:40:57;;;;;;;1.35;0.75;;;;;;;;;;2056272;28;20027;-60
2023/07/22 01:42:16;;;;;;;9.63;1.00;;;;;;;;;;2056338;28;20038;-59
2023/07/22 01:43:34;;;;;;;1.40;0.93;;;;;;;;;;2056830;28;20031;-61
2023/07/22 01:44:54;;;;;;;2.65;0.68;;;;;;;;;;2058844;28;20491;-60
2023/07/22 01:46:13;;;;;;;5.60;1.10;;;;;;;;;;2057453;28;20047;-60
2023/07/22 01:47:34;;;;;;;1.13;0.80;;;;;;;;;;2063128;28;20031;-61
2023/07/22 01:48:53;;;;;;;3.28;1.02;;;;;;;;;;2063730;28;20102;-60
2023/07/22 01:50:12;;;;;;;3.40;0.95;;;;;;;;;;2056240;28;20031;-61
2023/07/22 01:51:32;;;;;;;1.33;0.77;;;;;;;;;;2055565;28;20027;-64
2023/07/22 01:52:51;;;;;;;3.53;0.75;;;;;;;;;;2059048;28;20043;-60
2023/07/22 01:54:11;;;;;;;1.48;0.77;;;;;;;;;;2056668;28;20558;-62
2023/07/22 01:55:30;;;;;;;2.00;0.85;;;;;;;;;;2058718;28;20299;-62
2023/07/22 01:56:49;;;;;;;1.40;0.50;;;;;;;;;;2057332;28;20574;-60
2023/07/22 01:58:08;;;;;;;3.70;1.05;;;;;;;;;;2068840;28;20037;-60
2023/07/22 01:59:26;;;;;;;5.70;0.70;;;;;;;;;;2060130;28;20483;-61
2023/07/22 02:00:49;;;;;;;1.80;0.82;;;;;;;;;;2049443;28;20066;-61
2023/07/22 02:02:08;;;;;;;4.28;0.70;;;;;;;;;;2056441;28;20051;-61
2023/07/22 02:03:27;;;;;;;1.70;0.80;;;;;;;;;;2057872;28;20114;-60
2023/07/22 02:04:46;;;;;;;2.88;1.50;;;;;;;;;;2058152;28;20039;-60
2023/07/22 02:06:05;;;;;;;3.75;0.75;;;;;;;;;;2056566;28;20031;-61
2023/07/22 02:07:26;;;;;;;1.83;0.60;;;;;;;;;;2060193;28;20495;-60
2023/07/22 02:08:45;;;;;;;3.45;0.88;;;;;;;;;;2055834;28;21850;-61
2023/07/22 02:10:05;;;;;;;1.48;0.80;;;;;;;;;;2057254;28;20030;-60
2023/07/22 02:11:24;;;;;;;2.42;0.70;;;;;;;;;;2059405;28;20031;-61
2023/07/22 02:12:42;;;;;;;1.20;0.70;;;;;;;;;;2057307;28;20074;-60
2023/07/22 02:14:01;;;;;;;1.25;0.80;;;;;;;;;;2058787;28;20456;-60
2023/07/22 02:15:22;;;;;;;1.15;0.70;;;;;;;;;;2057174;28;20058;-61
2023/07/22 02:16:41;;;;;;;2.08;1.15;;;;;;;;;;2058356;28;20035;-60
2023/07/22 02:18:00;;;;;;;1.10;0.70;;;;;;;;;;2057102;28;20035;-60
2023/07/22 02:19:19;;;;;;;2.10;0.88;;;;;;;;;;2057344;28;20035;-61
2023/07/22 02:20:38;;;;;;;1.15;0.80;;;;;;;;;;2057202;28;20066;-61
2023/07/22 02:21:57;;;;;;;2.72;1.10;;;;;;;;;;2057667;28;20035;-61
2023/07/22 02:23:16;;;;;;;2.05;0.63;;;;;;;;;;2060401;28;20046;-60
2023/07/22 02:24:35;;;;;;;3.08;0.80;;;;;;;;;;2049176;28;20042;-62
2023/07/22 02:25:54;;;;;;;1.25;0.57;;;;;;;;;;2060625;28;20027;-61
2023/07/22 02:27:14;;;;;;;2.65;1.00;;;;;;;;;;2056793;28;20430;-62
2023/07/22 02:28:33;;;;;;;2.47;0.93;;;;;;;;;;2059810;28;20027;-60
2023/07/22 02:29:52;;;;;;;5.40;0.82;;;;;;;;;;2058224;28;20030;-60
2023/07/22 02:31:11;;;;;;;3.88;0.93;;;;;;;;;;2058534;28;20038;-60
2023/07/22 02:32:30;;;;;;;3.55;0.80;;;;;;;;;;2056255;28;20062;-61
2023/07/22 02:33:49;;;;;;;2.30;0.95;;;;;;;;;;2059499;28;20023;-60
2023/07/22 02:35:08;;;;;;;3.20;0.85;;;;;;;;;;2057483;28;20404;-60
2023/07/22 02:36:27;;;;;;;4.50;1.10;;;;;;;;;;2057709;28;20508;-61
2023/07/22 02:37:46;;;;;;;1.90;0.98;;;;;;;;;;2058032;28;20036;-60
2023/07/22 02:39:05;;;;;;;1.25;0.73;;;;;;;;;;2058428;28;20042;-62
2023/07/22 02:40:24;;;;;;;2.13;0.80;;;;;;;;;;2060984;28;20403;-60
2023/07/22 02:41:43;;;;;;;3.13;0.80;;;;;;;;;;2057214;28;20030;-60
2023/07/22 02:43:03;;;;;;;1.73;0.70;;;;;;;;;;2058911;28;20084;-60
2023/07/22 02:44:22;;;;;;;2.85;0.77;;;;;;;;;;2064922;28;20468;-60
2023/07/22 02:45:41;;;;;;;4.82;0.65;;;;;;;;;;2057590;28;20125;-60
2023/07/22 02:47:00;;;;;;;4.40;1.17;;;;;;;;;;2059014;28;20066;-61
2023/07/22 02:48:19;;;;;;;2.58;1.00;;;;;;;;;;2060620;28;20041;-64
2023/07/22 02:49:38;;;;;;;0.90;0.50;;;;;;;;;;2059012;28;20550;-60
2023/07/22 02:51:04;;;;;;;3.38;0.63;;;;;;;;;;2058626;28;20118;-59
2023/07/22 02:52:23;;;;;;;1.55;0.80;;;;;;;;;;2058796;28;20023;-59
2023/07/22 02:53:44;;;;;;;2.15;0.90;;;;;;;;;;2059234;28;20055;-59
2023/07/22 02:55:13;;;;;;;4.22;0.90;;;;;;;;;;2059676;28;20511;-60
2023/07/22 02:56:32;;;;;;;2.25;0.90;;;;;;;;;;2065111;28;20450;-60
2023/07/22 02:57:51;;;;;;;3.33;0.80;;;;;;;;;;2057822;28;20034;-60
2023/07/22 02:59:11;;;;;;;5.10;0.82;;;;;;;;;;2058947;28;20039;-60
2023/07/22 03:00:30;;;;;;;0.70;0.60;;;;;;;;;;2063165;28;20037;-59
2023/07/22 03:01:49;;;;;;;2.83;0.65;;;;;;;;;;2058804;28;20047;-61
2023/07/22 03:03:08;;;;;;;2.92;0.60;;;;;;;;;;2057673;28;20392;-61
2023/07/22 03:04:27;;;;;;;1.45;0.75;;;;;;;;;;2057824;28;20050;-59
2023/07/22 03:05:47;;;;;;;2.03;1.08;;;;;;;;;;2056751;28;20035;-60
2023/07/22 03:07:06;;;;;;;3.28;0.68;;;;;;;;;;2057917;28;20364;-61
2023/07/22 03:08:25;;;;;;;2.28;0.95;;;;;;;;;;2056057;28;20039;-59
2023/07/22 03:09:44;;;;;;;2.17;1.08;;;;;;;;;;2057527;28;20415;-59
2023/07/22 03:11:03;;;;;;;4.75;1.00;;;;;;;;;;2056526;28;20402;-59
2023/07/22 03:12:22;;;;;;;2.88;0.60;;;;;;;;;;2063061;28;20031;-59
2023/07/22 03:13:41;;;;;;;5.38;0.88;;;;;;;;;;2056882;28;20031;-62
2023/07/22 03:15:01;;;;;;;3.40;0.90;;;;;;;;;;2058085;28;20462;-63
2023/07/22 03:16:20;;;;;;;4.68;1.02;;;;;;;;;;2056734;28;20019;-62
2023/07/22 03:17:42;;;;;;;2.95;0.70;;;;;;;;;;2057385;28;20031;-59
2023/07/22 03:19:01;;;;;;;6.60;1.15;;;;;;;;;;2057695;28;20035;-60
2023/07/22 03:20:21;;;;;;;3.28;0.70;;;;;;;;;;2057414;28;20035;-59
2023/07/22 03:21:40;;;;;;;1.50;0.70;;;;;;;;;;2063045;28;20030;-61
2023/07/22 03:22:59;;;;;;;2.25;0.70;;;;;;;;;;2056996;28;20539;-61
2023/07/22 03:24:18;;;;;;;2.70;0.80;;;;;;;;;;2058152;28;20050;-60
2023/07/22 03:25:37;;;;;;;2.13;0.73;;;;;;;;;;2057743;28;20071;-60
2023/07/22 03:26:56;;;;;;;2.17;0.73;;;;;;;;;;2058049;28;20036;-60
2023/07/22 03:28:16;;;;;;;2.72;0.55;;;;;;;;;;2058590;28;20058;-64
2023/07/22 03:29:36;;;;;;;2.15;0.85;;;;;;;;;;2058454;28;20508;-61
2023/07/22 03:30:54;;;;;;;4.40;0.80;;;;;;;;;;2057745;28;20472;-60
2023/07/22 03:32:13;;;;;;;3.72;0.73;;;;;;;;;;2055531;28;20031;-60
2023/07/22 03:33:32;;;;;;;2.15;0.50;;;;;;;;;;2048456;28;20031;-61
2023/07/22 03:34:52;;;;;;;3.25;0.70;;;;;;;;;;2055805;28;20034;-60
2023/07/22 03:36:12;;;;;;;1.88;0.75;;;;;;;;;;2057960;28;20039;-60
2023/07/22 03:37:31;;;;;;;2.70;0.85;;;;;;;;;;2058367;28;20031;-60
2023/07/22 03:38:50;;;;;;;2.17;0.80;;;;;;;;;;2058427;28;20471;-62
2023/07/22 03:40:19;;;;;;;1.25;0.75;;;;;;;;;;2057379;28;20488;-60
2023/07/22 03:41:38;;;;;;;1.92;0.70;;;;;;;;;;2055905;28;20120;-60
2023/07/22 03:42:57;;;;;;;2.05;0.70;;;;;;;;;;2057651;28;20392;-60
2023/07/22 03:44:16;;;;;;;5.13;0.80;;;;;;;;;;2057867;28;20060;-60
2023/07/22 03:45:35;;;;;;;0.82;0.70;;;;;;;;;;2058228;28;20030;-59
2023/07/22 03:46:54;;;;;;;3.15;0.77;;;;;;;;;;2057158;28;20035;-59
2023/07/22 03:48:13;;;;;;;2.20;0.60;;;;;;;;;;2057627;28;20458;-61
2023/07/22 03:49:32;;;;;;;3.53;0.60;;;;;;;;;;2057060;28;20031;-60
2023/07/22 03:50:51;;;;;;;2.58;0.68;;;;;;;;;;2057358;28;20713;-60
2023/07/22 03:52:14;;;;;;;2.22;0.80;;;;;;;;;;2058054;28;20023;-60
2023/07/22 03:53:32;;;;;;;3.13;0.65;;;;;;;;;;2061342;28;20101;-60
2023/07/22 03:54:51;;;;;;;1.83;0.90;;;;;;;;;;2056226;28;20117;-60
2023/07/22 03:56:10;;;;;;;2.63;1.02;;;;;;;;;;2057566;28;20380;-60
2023/07/22 03:57:30;;;;;;;3.35;0.80;;;;;;;;;;2061963;28;20039;-60
2023/07/22 03:58:49;;;;;;;3.38;0.90;;;;;;;;;;2058380;28;20026;-60
2023/07/22 04:00:09;;;;;;;2.55;0.73;;;;;;;;;;2059213;28;20018;-60
2023/07/22 04:01:28;;;;;;;2.53;0.77;;;;;;;;;;2049285;28;20516;-60
2023/07/22 04:02:47;;;;;;;2.45;0.70;;;;;;;;;;2053789;28;20499;-60
2023/07/22 04:04:06;;;;;;;2.70;0.60;;;;;;;;;;2057871;28;20110;-62
2023/07/22 04:05:25;;;;;;;2.75;0.70;;;;;;;;;;2057729;28;20035;-62
2023/07/22 04:06:45;;;;;;;1.83;0.70;;;;;;;;;;2056578;28;20047;-60
2023/07/22 04:08:04;;;;;;;2.25;0.80;;;;;;;;;;2058387;28;20495;-60
2023/07/22 04:09:23;;;;;;;2.25;0.68;;;;;;;;;;2059155;28;20483;-61
2023/07/22 04:10:50;;;;;;;1.30;0.50;;;;;;;;;;2057585;28;20039;-60
2023/07/22 04:12:09;;;;;;;1.83;0.80;;;;;;;;;;2053915;28;20046;-59
2023/07/22 04:13:28;;;;;;;4.10;0.52;;;;;;;;;;2061396;28;20097;-60
2023/07/22 04:14:47;;;;;;;1.77;0.70;;;;;;;;;;2056660;28;20031;-60
2023/07/22 04:16:06;;;;;;;2.70;0.80;;;;;;;;;;2059536;28;20062;-60
2023/07/22 04:17:25;;;;;;;0.85;0.60;;;;;;;;;;2059411;28;20563;-60
2023/07/22 04:18:44;;;;;;;7.32;1.00;;;;;;;;;;2058308;28;20134;-61
2023/07/22 04:20:04;;;;;;;1.63;1.00;;;;;;;;;;2062187;28;20120;-59
2023/07/22 04:21:23;;;;;;;2.22;0.60;;;;;;;;;;2058753;28;20035;-61
2023/07/22 04:22:42;;;;;;;2.22;0.98;;;;;;;;;;2059092;28;20027;-61
2023/07/22 04:24:01;;;;;;;3.38;0.80;;;;;;;;;;2057337;28;20038;-61
2023/07/22 04:25:20;;;;;;;1.10;0.45;;;;;;;;;;2060154;28;20025;-61
2023/07/22 04:26:40;;;;;;;2.78;0.60;;;;;;;;;;2059059;28;20027;-62
2023/07/22 04:27:59;;;;;;;2.70;0.95;;;;;;;;;;2057757;28;20520;-60
2023/07/22 04:29:18;;;;;;;1.35;0.70;;;;;;;;;;2057236;28;20161;-61
2023/07/22 04:30:37;;;;;;;3.22;0.50;;;;;;;;;;2056585;28;20113;-60
2023/07/22 04:31:57;;;;;;;2.67;0.80;;;;;;;;;;2049321;28;20035;-60
2023/07/22 04:33:17;;;;;;;1.50;0.73;;;;;;;;;;2054196;28;20031;-61
2023/07/22 04:34:35;;;;;;;1.58;1.00;;;;;;;;;;2058361;28;20022;-63
2023/07/22 04:35:56;;;;;;;1.95;0.70;;;;;;;;;;2064439;28;20027;-60
2023/07/22 04:37:16;;;;;;;3.58;0.80;;;;;;;;;;2056296;28;20023;-61
2023/07/22 04:38:35;;;;;;;2.40;1.00;;;;;;;;;;2056705;28;20539;-59
2023/07/22 04:39:54;;;;;;;1.75;0.80;;;;;;;;;;2058667;28;20038;-63
2023/07/22 04:41:13;;;;;;;2.30;0.65;;;;;;;;;;2057416;28;20035;-60
2023/07/22 04:42:32;;;;;;;1.80;0.80;;;;;;;;;;2058191;28;20105;-60
2023/07/22 04:43:51;;;;;;;2.90;0.73;;;;;;;;;;2057494;28;20062;-60
2023/07/22 04:45:11;;;;;;;1.15;0.60;;;;;;;;;;2057390;28;20061;-60
2023/07/22 04:46:30;;;;;;;2.97;0.60;;;;;;;;;;2060413;28;20039;-60
2023/07/22 04:47:50;;;;;;;3.28;0.80;;;;;;;;;;2058099;28;20027;-60
2023/07/22 04:49:09;;;;;;;3.28;0.70;;;;;;;;;;2057497;28;20035;-60
2023/07/22 04:50:28;;;;;;;2.83;0.93;;;;;;;;;;2060580;28;20387;-61
2023/07/22 04:51:47;;;;;;;3.33;0.90;;;;;;;;;;2056717;28;20030;-61
2023/07/22 04:53:06;;;;;;;3.42;0.63;;;;;;;;;;2056447;28;20031;-61
2023/07/22 04:54:28;;;;;;;2.42;0.50;;;;;;;;;;2059640;28;20034;-61
2023/07/22 04:55:46;;;;;;;3.50;1.00;;;;;;;;;;2058247;28;20395;-60
2023/07/22 04:57:06;;;;;;;2.22;0.98;;;;;;;;;;2048964;28;20023;-60
2023/07/22 04:58:25;;;;;;;4.13;0.68;;;;;;;;;;2055646;28;20059;-61
2023/07/22 04:59:44;;;;;;;1.88;0.80;;;;;;;;;;2056499;28;20035;-60
2023/07/22 05:01:03;;;;;;;2.28;0.68;;;;;;;;;;2057062;28;20034;-62
2023/07/22 05:02:22;;;;;;;2.63;0.60;;;;;;;;;;2057324;28;20066;-62
2023/07/22 05:03:41;;;;;;;2.92;0.73;;;;;;;;;;2056641;28;20039;-61
2023/07/22 05:05:00;;;;;;;3.33;0.80;;;;;;;;;;2055581;28;20031;-60
2023/07/22 05:06:19;;;;;;;3.65;0.80;;;;;;;;;;2056702;28;21102;-61
2023/07/22 05:07:38;;;;;;;3.40;0.73;;;;;;;;;;2052366;28;20061;-61
2023/07/22 05:08:57;;;;;;;2.63;0.95;;;;;;;;;;2052226;28;20029;-60
2023/07/22 05:10:15;;;;;;;2.65;1.10;;;;;;;;;;2052471;28;20023;-61
2023/07/22 05:11:34;;;;;;;1.95;0.70;;;;;;;;;;2056260;28;20031;-59
2023/07/22 05:12:53;;;;;;;3.65;0.85;;;;;;;;;;2056146;28;20022;-60
2023/07/22 05:14:12;;;;;;;3.42;1.05;;;;;;;;;;2056014;28;20044;-60
2023/07/22 05:15:31;;;;;;;4.32;1.17;;;;;;;;;;2056946;28;20543;-60
2023/07/22 05:16:50;;;;;;;3.42;0.70;;;;;;;;;;2059045;28;20121;-60
2023/07/22 05:18:08;;;;;;;2.13;0.90;;;;;;;;;;2063588;28;20027;-60
2023/07/22 05:19:27;;;;;;;2.85;1.00;;;;;;;;;;2056521;28;20383;-60
2023/07/22 05:20:46;;;;;;;2.47;0.50;;;;;;;;;;2055909;28;20034;-61
2023/07/22 05:22:05;;;;;;;3.50;0.85;;;;;;;;;;2056468;28;20043;-61
2023/07/22 05:23:24;;;;;;;3.03;1.00;;;;;;;;;;2057100;28;20490;-60
2023/07/22 05:24:44;;;;;;;2.50;0.90;;;;;;;;;;2056170;28;20034;-62
2023/07/22 05:26:03;;;;;;;3.28;0.85;;;;;;;;;;2062372;28;20038;-60
2023/07/22 05:27:22;;;;;;;5.63;1.30;;;;;;;;;;2058782;28;20034;-60
2023/07/22 05:28:42;;;;;;;4.72;1.00;;;;;;;;;;2056484;28;20035;-60
2023/07/22 05:30:01;;;;;;;4.07;0.93;;;;;;;;;;2058811;28;20077;-62
2023/07/22 05:31:20;;;;;;;3.40;1.15;;;;;;;;;;2057922;28;20039;-60
2023/07/22 05:32:38;;;;;;;2.28;1.00;;;;;;;;;;2056954;28;20027;-60
2023/07/22 05:33:58;;;;;;;2.17;0.60;;;;;;;;;;2052133;28;20031;-61
2023/07/22 05:35:17;;;;;;;3.08;0.52;;;;;;;;;;2049991;28;20027;-61
2023/07/22 05:36:35;;;;;;;4.00;1.00;;;;;;;;;;2054617;28;20064;-64
2023/07/22 05:37:54;;;;;;;6.28;1.00;;;;;;;;;;2060134;28;20039;-61
2023/07/22 05:39:13;;;;;;;4.57;1.15;;;;;;;;;;2056678;28;20039;-60
2023/07/22 05:40:32;;;;;;;3.63;0.90;;;;;;;;;;2057189;28;20027;-60
2023/07/22 05:41:51;;;;;;;2.75;0.90;;;;;;;;;;2057516;28;20035;-60
2023/07/22 05:43:10;;;;;;;3.22;0.70;;;;;;;;;;2060521;28;20027;-61
2023/07/22 05:44:29;;;;;;;3.78;0.65;;;;;;;;;;2060381;28;20476;-61
2023/07/22 05:45:48;;;;;;;1.98;0.70;;;;;;;;;;2058622;28;20034;-61
2023/07/22 05:47:07;;;;;;;1.60;0.50;;;;;;;;;;2062806;28;20119;-65
2023/07/22 05:48:26;;;;;;;2.88;0.70;;;;;;;;;;2058083;28;20042;-60
2023/07/22 05:49:45;;;;;;;3.10;0.85;;;;;;;;;;2059028;28;20406;-61
2023/07/22 05:51:03;;;;;;;1.80;0.73;;;;;;;;;;2061150;28;20046;-60
2023/07/22 05:52:23;;;;;;;3.00;0.85;;;;;;;;;;2057211;28;20026;-61
2023/07/22 05:53:42;;;;;;;3.53;0.93;;;;;;;;;;2058602;28;20547;-62
2023/07/22 05:55:01;;;;;;;3.47;0.85;;;;;;;;;;2056760;28;20496;-61
2023/07/22 05:56:20;;;;;;;2.40;0.65;;;;;;;;;;2054438;28;20039;-62
2023/07/22 05:57:39;;;;;;;5.07;1.05;;;;;;;;;;2058075;28;20496;-61
2023/07/22 05:58:58;;;;;;;2.80;1.02;;;;;;;;;;2058605;28;20026;-61
2023/07/22 06:00:17;;;;;;;1.83;0.88;;;;;;;;;;2058508;28;20383;-61
2023/07/22 06:01:38;;;;;;;3.00;1.02;;;;;;;;;;2058492;28;20027;-60
2023/07/22 06:02:57;;;;;;;4.35;0.90;;;;;;;;;;2060021;28;20030;-60
2023/07/22 06:04:15;;;;;;;2.83;0.82;;;;;;;;;;2056636;28;20039;-62
2023/07/22 06:05:34;;;;;;;2.22;1.00;;;;;;;;;;2058843;28;20149;-62
2023/07/22 06:06:53;;;;;;;3.97;1.10;;;;;;;;;;2058816;28;20488;-60
2023/07/22 06:08:13;;;;;;;2.78;1.10;;;;;;;;;;2064037;28;20035;-61
2023/07/22 06:09:32;;;;;;;3.90;1.00;;;;;;;;;;2059426;28;20498;-61
2023/07/22 06:10:51;;;;;;;6.78;1.58;;;;;;;;;;2058337;28;20300;-61
2023/07/22 06:12:10;;;;;;;3.53;0.93;;;;;;;;;;2057831;28;20031;-61
2023/07/22 06:13:29;;;;;;;5.35;0.80;;;;;;;;;;2057844;28;20027;-60
2023/07/22 06:14:48;;;;;;;2.88;0.95;;;;;;;;;;2057797;28;20380;-61
2023/07/22 06:16:07;;;;;;;4.47;1.15;;;;;;;;;;2059303;28;20042;-61
2023/07/22 06:17:25;;;;;;;2.60;0.80;;;;;;;;;;2060213;28;20035;-61
2023/07/22 06:18:44;;;;;;;1.88;0.75;;;;;;;;;;2059180;28;20476;-62
2023/07/22 06:20:04;;;;;;;4.43;0.98;;;;;;;;;;2058587;28;20046;-62
2023/07/22 06:21:23;;;;;;;4.20;1.05;;;;;;;;;;2063992;28;20040;-61
2023/07/22 06:22:42;;;;;;;6.75;1.08;;;;;;;;;;2051009;28;20030;-61
2023/07/22 06:24:01;;;;;;;3.47;0.90;;;;;;;;;;2047636;28;20616;-61
2023/07/22 06:25:19;;;;;;;5.10;1.25;;;;;;;;;;2055529;28;20033;-61
2023/07/22 06:26:38;;;;;;;3.15;0.73;;;;;;;;;;2058437;28;20042;-62
2023/07/22 06:27:57;;;;;;;4.60;0.95;;;;;;;;;;2060073;28;20100;-63
2023/07/22 06:29:16;;;;;;;2.20;0.70;;;;;;;;;;2059001;28;20416;-61
2023/07/22 06:30:36;;;;;;;2.33;0.77;;;;;;;;;;2061385;28;20022;-61
2023/07/22 06:31:54;;;;;;;5.03;1.13;;;;;;;;;;2057190;28;20430;-61
2023/07/22 06:33:14;;;;;;;3.08;0.93;;;;;;;;;;2057774;28;20418;-61
2023/07/22 06:34:32;;;;;;;4.03;1.23;;;;;;;;;;2064000;28;20117;-60
2023/07/22 06:35:52;;;;;;;3.95;1.52;;;;;;;;;;2058270;28;20054;-60
2023/07/22 06:37:10;;;;;;;4.18;0.90;;;;;;;;;;2056511;28;20034;-60
2023/07/22 06:38:29;;;;;;;1.98;0.80;;;;;;;;;;2058819;28;20106;-60
2023/07/22 06:39:48;;;;;;;4.93;1.30;;;;;;;;;;2055919;28;20430;-60
2023/07/22 06:41:08;;;;;;;3.15;0.60;;;;;;;;;;2049262;28;20468;-62
2023/07/22 06:42:27;;;;;;;3.00;1.05;;;;;;;;;;2055463;28;20484;-61
2023/07/22 06:43:46;;;;;;;4.03;1.15;;;;;;;;;;2066372;28;20499;-61
2023/07/22 06:45:06;;;;;;;5.80;1.15;;;;;;;;;;2060523;28;20063;-60
2023/07/22 06:46:25;;;;;;;3.55;1.20;;;;;;;;;;2056121;28;20031;-60
2023/07/22 06:47:44;;;;;;;4.70;0.98;;;;;;;;;;2057688;28;20027;-62
2023/07/22 06:49:02;;;;;;;3.00;1.00;;;;;;;;;;2058467;28;20421;-61
2023/07/22 06:50:22;;;;;;;1.65;0.88;;;;;;;;;;2057490;28;20038;-60
2023/07/22 06:51:41;;;;;;;5.78;1.58;;;;;;;;;;2057489;28;20084;-60
2023/07/22 06:53:00;;;;;;;4.57;0.80;;;;;;;;;;2056178;28;20031;-60
2023/07/22 06:54:18;;;;;;;6.38;0.93;;;;;;;;;;2056823;28;20042;-61
2023/07/22 06:55:38;;;;;;;4.03;0.93;;;;;;;;;;2053477;28;20032;-61
2023/07/22 06:56:57;;;;;;;4.55;0.80;;;;;;;;;;2054054;28;20026;-60
2023/07/22 06:58:16;;;;;;;2.90;1.20;;;;;;;;;;2057156;28;20031;-63
2023/07/22 06:59:35;;;;;;;3.95;0.77;;;;;;;;;;2057068;28;20117;-61
2023/07/22 07:00:55;;;;;;;4.15;1.00;;;;;;;;;;2055910;28;20506;-62
2023/07/22 07:02:14;;;;;;;9.18;1.50;;;;;;;;;;2060847;28;20058;-61
2023/07/22 07:03:33;;;;;;;3.83;1.25;;;;;;;;;;2057015;28;20039;-62
2023/07/22 07:04:52;;;;;;;5.53;1.00;;;;;;;;;;2056434;28;20031;-62
2023/07/22 07:06:11;;;;;;;3.33;0.88;;;;;;;;;;2056472;28;20038;-61
2023/07/22 07:07:30;;;;;;;7.40;0.95;;;;;;;;;;2057586;28;20035;-61
2023/07/22 07:08:49;;;;;;;3.42;0.90;;;;;;;;;;2056614;28;20036;-61
2023/07/22 07:10:08;;;;;;;6.50;1.42;;;;;;;;;;2054837;28;20476;-63
2023/07/22 07:11:28;;;;;;;2.42;0.50;;;;;;;;;;2057929;28;20030;-60
2023/07/22 07:12:47;;;;;;;2.85;0.98;;;;;;;;;;2062063;28;20109;-60
2023/07/22 07:14:06;;;;;;;2.22;0.75;;;;;;;;;;2057558;28;20106;-60
2023/07/22 07:15:25;;;;;;;1.73;0.80;;;;;;;;;;2057705;28;20415;-60
2023/07/22 07:16:44;;;;;;;3.63;0.90;;;;;;;;;;2057153;28;20084;-61
2023/07/22 07:18:03;;;;;;;2.53;0.50;;;;;;;;;;2058867;28;20026;-61
2023/07/22 07:19:22;;;;;;;3.60;0.70;;;;;;;;;;2060854;28;20023;-60
2023/07/22 07:20:42;;;;;;;1.55;0.80;;;;;;;;;;2057883;28;20031;-60
2023/07/22 07:22:01;;;;;;;2.13;0.60;;;;;;;;;;2063797;28;20043;-61
2023/07/22 07:23:20;;;;;;;2.55;1.23;;;;;;;;;;2058499;28;20034;-61
2023/07/22 07:24:39;;;;;;;4.05;0.68;;;;;;;;;;2059209;28;20442;-61
2023/07/22 07:25:58;;;;;;;3.05;0.70;;;;;;;;;;2057892;28;20063;-60
2023/07/22 07:27:17;;;;;;;4.50;0.90;;;;;;;;;;2056813;28;20085;-61
2023/07/22 07:28:36;;;;;;;4.00;0.70;;;;;;;;;;2057168;28;20078;-62
2023/07/22 07:29:54;;;;;;;2.92;0.63;;;;;;;;;;2059039;28;20043;-60
2023/07/22 07:31:13;;;;;;;2.63;0.70;;;;;;;;;;2058622;28;20109;-61
2023/07/22 07:32:32;;;;;;;3.95;1.10;;;;;;;;;;2058350;28;20105;-61
2023/07/22 07:33:51;;;;;;;1.35;0.80;;;;;;;;;;2057119;28;20098;-61
2023/07/22 07:35:10;;;;;;;3.92;1.10;;;;;;;;;;2057674;28;20511;-61
2023/07/22 07:36:29;;;;;;;3.75;0.80;;;;;;;;;;2048114;28;20036;-60
2023/07/22 07:37:48;;;;;;;3.85;1.00;;;;;;;;;;2053393;28;20109;-61
2023/07/22 07:39:07;;;;;;;2.55;0.95;;;;;;;;;;2058054;28;20031;-60
2023/07/22 07:40:26;;;;;;;2.90;0.90;;;;;;;;;;2058108;28;20023;-60
2023/07/22 07:41:45;;;;;;;2.25;0.90;;;;;;;;;;2059742;28;20122;-60
2023/07/22 07:43:04;;;;;;;3.97;0.80;;;;;;;;;;2059537;28;20059;-59
2023/07/22 07:44:23;;;;;;;2.72;0.60;;;;;;;;;;2057439;28;20054;-62
2023/07/22 07:45:42;;;;;;;3.05;0.77;;;;;;;;;;2051883;28;20119;-59
2023/07/22 07:47:01;;;;;;;1.95;0.65;;;;;;;;;;2054859;28;20038;-61
2023/07/22 07:48:20;;;;;;;1.38;0.80;;;;;;;;;;2057862;28;20060;-61
2023/07/22 07:49:40;;;;;;;4.85;0.95;;;;;;;;;;2058815;28;20027;-62
2023/07/22 07:50:59;;;;;;;5.95;0.85;;;;;;;;;;2056686;28;20034;-60
2023/07/22 07:52:18;;;;;;;5.18;0.60;;;;;;;;;;2059617;28;20019;-60
2023/07/22 07:53:37;;;;;;;2.42;0.75;;;;;;;;;;2058657;28;20480;-60
2023/07/22 07:54:56;;;;;;;3.58;0.80;;;;;;;;;;2058417;28;20038;-60